Route Details

Aircraft Information
Group: North America Fleet
Types: B738, B752, B762, B763
Route Data
Distance: 833nm
Duration: 2h 39m
Origin METAR: KONT 181653Z 23003KT 10SM FEW130 26/14 A2994 RMK AO2 SLP122 T02610139
Dest. METAR: KSEA 181653Z VRB03KT 10SM BKN160 BKN200 25/16 A2994 RMK AO2 SLP141 VIRGA T02500161
Freight Data
(for Aug 18, 2022)
Load Factor:
20%
Manifested Cargo: 19,540lbs
Financial History
Total Freight: 73,506lbs
Average Load: 0lbs/flt
Fuel Used: 18,262lbs
Avg. Fuel Used: 0lbs/flt
Fuel Expense: $12,418
Avg. Fuel Expense: $0
Avg. Fuel Cost: $0/lbs
Total Gross Income: $180,825
Pilot Pay: $269
Total Expenses: $37,298
Total Revenue: $130,386
Average Revenue: $0

Capitol Logistics 400




KONT
Ontario International Airport
Ontario, California
KSEA
Seattle-Tacoma International Airport
Seattle, Washington

Activity Log

Date Flight Route Aircraft Duration
07/07/2022 CPX7469 SNSHN5 EHF DCT NURAY DCT SAC DCT RBL DCT LMT DCT BTG HAWKZ7 B763 2h 41m